sensor_id;sensor_type;location;lat;lon;timestamp;pressure;altitude;pressure_sealevel;temperature;humidity
71485;BME280;59300;52.074;4.758;2022-09-01T00:02:00;102258.28;;;13.08;91.23
71485;BME280;59300;52.074;4.758;2022-09-01T00:05:03;102252.22;;;12.99;91.66
71485;BME280;59300;52.074;4.758;2022-09-01T00:08:05;102249.63;;;12.96;91.72
71485;BME280;59300;52.074;4.758;2022-09-01T00:11:07;102249.56;;;12.99;91.63
71485;BME280;59300;52.074;4.758;2022-09-01T00:14:10;102245.19;;;12.97;91.62
71485;BME280;59300;52.074;4.758;2022-09-01T00:17:31;102245.19;;;12.97;91.75
71485;BME280;59300;52.074;4.758;2022-09-01T00:20:34;102239.88;;;12.97;91.85
71485;BME280;59300;52.074;4.758;2022-09-01T00:23:36;102240.78;;;12.96;91.81
71485;BME280;59300;52.074;4.758;2022-09-01T00:26:38;102239.97;;;12.92;92.21
71485;BME280;59300;52.074;4.758;2022-09-01T00:29:40;102237.34;;;12.89;92.27
71485;BME280;59300;52.074;4.758;2022-09-01T00:32:45;102232.94;;;12.89;92.37
71485;BME280;59300;52.074;4.758;2022-09-01T00:35:47;102236.53;;;12.85;92.67
71485;BME280;59300;52.074;4.758;2022-09-01T00:38:49;102231.28;;;12.82;92.95
71485;BME280;59300;52.074;4.758;2022-09-01T00:41:52;102221.66;;;12.77;93.41
71485;BME280;59300;52.074;4.758;2022-09-01T00:44:54;102224.31;;;12.75;93.19
71485;BME280;59300;52.074;4.758;2022-09-01T00:47:56;102229.81;;;12.61;93.89
71485;BME280;59300;52.074;4.758;2022-09-01T00:50:59;102223.69;;;12.57;94.20
71485;BME280;59300;52.074;4.758;2022-09-01T00:54:03;102214.88;;;12.57;94.44
71485;BME280;59300;52.074;4.758;2022-09-01T00:57:06;102221.94;;;12.58;94.31
71485;BME280;59300;52.074;4.758;2022-09-01T01:00:15;102215.00;;;12.49;94.63
71485;BME280;59300;52.074;4.758;2022-09-01T01:03:18;102219.47;;;12.44;95.12
71485;BME280;59300;52.074;4.758;2022-09-01T01:06:21;102218.59;;;12.42;95.20
71485;BME280;59300;52.074;4.758;2022-09-01T01:09:24;102212.50;;;12.37;95.24
71485;BME280;59300;52.074;4.758;2022-09-01T01:12:27;102214.28;;;12.35;95.60
71485;BME280;59300;52.074;4.758;2022-09-01T01:15:29;102217.06;;;12.25;95.95
71485;BME280;59300;52.074;4.758;2022-09-01T01:18:31;102217.13;;;12.21;96.26
71485;BME280;59300;52.074;4.758;2022-09-01T01:21:38;102208.38;;;12.16;97.26
71485;BME280;59300;52.074;4.758;2022-09-01T01:24:44;102210.16;;;12.13;97.15
71485;BME280;59300;52.074;4.758;2022-09-01T01:27:47;102213.69;;;12.14;97.83
71485;BME280;59300;52.074;4.758;2022-09-01T01:30:55;102215.44;;;12.13;97.66
71485;BME280;59300;52.074;4.758;2022-09-01T01:33:58;102206.66;;;12.13;98.24
71485;BME280;59300;52.074;4.758;2022-09-01T01:37:00;102212.84;;;12.12;98.25
71485;BME280;59300;52.074;4.758;2022-09-01T01:40:03;102211.09;;;12.08;98.29
71485;BME280;59300;52.074;4.758;2022-09-01T01:43:05;102214.53;;;12.16;97.63
71485;BME280;59300;52.074;4.758;2022-09-01T01:46:10;102211.88;;;12.16;98.00
71485;BME280;59300;52.074;4.758;2022-09-01T01:49:15;102196.81;;;12.21;97.91
71485;BME280;59300;52.074;4.758;2022-09-01T01:52:19;102202.09;;;12.23;97.60
71485;BME280;59300;52.074;4.758;2022-09-01T01:55:27;102210.94;;;12.20;98.09
71485;BME280;59300;52.074;4.758;2022-09-01T01:58:32;102203.91;;;12.19;98.12
71485;BME280;59300;52.074;4.758;2022-09-01T02:01:36;102214.53;;;12.16;98.32
71485;BME280;59300;52.074;4.758;2022-09-01T02:04:38;102210.19;;;12.12;98.56
71485;BME280;59300;52.074;4.758;2022-09-01T02:07:43;102209.28;;;12.13;98.53
71485;BME280;59300;52.074;4.758;2022-09-01T02:10:48;102204.03;;;12.10;98.73
71485;BME280;59300;52.074;4.758;2022-09-01T02:13:52;102212.88;;;12.06;99.10
71485;BME280;59300;52.074;4.758;2022-09-01T02:16:54;102216.53;;;11.98;99.15
71485;BME280;59300;52.074;4.758;2022-09-01T02:19:57;102208.59;;;11.98;98.92
71485;BME280;59300;52.074;4.758;2022-09-01T02:22:59;102218.34;;;11.90;99.75
71485;BME280;59300;52.074;4.758;2022-09-01T02:26:01;102210.44;;;11.87;99.70
71485;BME280;59300;52.074;4.758;2022-09-01T02:29:20;102210.50;;;11.81;100.00
71485;BME280;59300;52.074;4.758;2022-09-01T02:32:23;102211.44;;;11.77;100.00
71485;BME280;59300;52.074;4.758;2022-09-01T02:35:25;102209.75;;;11.70;100.00
71485;BME280;59300;52.074;4.758;2022-09-01T02:38:28;102211.59;;;11.64;100.00
71485;BME280;59300;52.074;4.758;2022-09-01T02:41:31;102200.94;;;11.67;100.00
71485;BME280;59300;52.074;4.758;2022-09-01T02:44:33;102207.22;;;11.59;100.00
71485;BME280;59300;52.074;4.758;2022-09-01T02:47:42;102208.13;;;11.53;100.00
71485;BME280;59300;52.074;4.758;2022-09-01T02:50:44;102203.75;;;11.53;100.00
71485;BME280;59300;52.074;4.758;2022-09-01T02:53:47;102207.22;;;11.59;100.00
71485;BME280;59300;52.074;4.758;2022-09-01T02:56:51;102198.50;;;11.49;100.00
71485;BME280;59300;52.074;4.758;2022-09-01T02:59:53;102198.56;;;11.43;100.00
71485;BME280;59300;52.074;4.758;2022-09-01T03:02:57;102197.78;;;11.33;100.00
71485;BME280;59300;52.074;4.758;2022-09-01T03:05:59;102191.66;;;11.28;100.00
71485;BME280;59300;52.074;4.758;2022-09-01T03:09:07;102198.69;;;11.29;100.00
71485;BME280;59300;52.074;4.758;2022-09-01T03:12:12;102192.56;;;11.25;100.00
71485;BME280;59300;52.074;4.758;2022-09-01T03:15:14;102197.75;;;11.36;100.00
71485;BME280;59300;52.074;4.758;2022-09-01T03:18:17;102198.56;;;11.43;100.00
71485;BME280;59300;52.074;4.758;2022-09-01T03:21:19;102193.28;;;11.41;100.00
71485;BME280;59300;52.074;4.758;2022-09-01T03:24:23;102189.75;;;11.41;100.00
71485;BME280;59300;52.074;4.758;2022-09-01T03:27:26;102188.09;;;11.33;100.00
71485;BME280;59300;52.074;4.758;2022-09-01T03:30:29;102187.22;;;11.28;100.00
71485;BME280;59300;52.074;4.758;2022-09-01T03:33:32;102187.22;;;11.28;100.00
71485;BME280;59300;52.074;4.758;2022-09-01T03:36:35;102189.06;;;11.21;100.00
71485;BME280;59300;52.074;4.758;2022-09-01T03:39:37;102184.63;;;11.24;100.00
71485;BME280;59300;52.074;4.758;2022-09-01T03:42:39;102181.13;;;11.21;100.00
71485;BME280;59300;52.074;4.758;2022-09-01T03:45:42;102178.56;;;11.15;100.00
71485;BME280;59300;52.074;4.758;2022-09-01T03:48:47;102177.69;;;11.15;100.00
71485;BME280;59300;52.074;4.758;2022-09-01T03:51:49;102178.59;;;11.11;100.00
71485;BME280;59300;52.074;4.758;2022-09-01T03:54:51;102175.09;;;11.09;100.00
71485;BME280;59300;52.074;4.758;2022-09-01T03:57:59;102175.97;;;11.09;100.00
71485;BME280;59300;52.074;4.758;2022-09-01T04:01:03;102174.19;;;11.11;100.00
71485;BME280;59300;52.074;4.758;2022-09-01T04:04:06;102172.44;;;11.12;100.00
71485;BME280;59300;52.074;4.758;2022-09-01T04:07:08;102169.84;;;11.04;100.00
71485;BME280;59300;52.074;4.758;2022-09-01T04:10:17;102165.47;;;11.00;100.00
71485;BME280;59300;52.074;4.758;2022-09-01T04:13:25;102162.81;;;11.03;100.00
71485;BME280;59300;52.074;4.758;2022-09-01T04:16:30;102171.69;;;10.96;100.00
71485;BME280;59300;52.074;4.758;2022-09-01T04:19:35;102158.44;;;10.99;100.00
71485;BME280;59300;52.074;4.758;2022-09-01T04:22:38;102175.13;;;11.05;100.00
71485;BME280;59300;52.074;4.758;2022-09-01T04:25:43;102175.09;;;11.09;99.92
71485;BME280;59300;52.074;4.758;2022-09-01T04:28:47;102178.56;;;11.12;99.61
71485;BME280;59300;52.074;4.758;2022-09-01T04:31:50;102174.97;;;11.24;98.52
71485;BME280;59300;52.074;4.758;2022-09-01T04:34:52;102181.06;;;11.29;98.26
71485;BME280;59300;52.074;4.758;2022-09-01T04:37:54;102174.75;;;11.43;97.60
71485;BME280;59300;52.074;4.758;2022-09-01T04:40:56;102178.22;;;11.51;97.08
71485;BME280;59300;52.074;4.758;2022-09-01T04:44:00;102171.03;;;11.64;95.87
71485;BME280;59300;52.074;4.758;2022-09-01T04:47:02;102177.97;;;11.73;95.34
71485;BME280;59300;52.074;4.758;2022-09-01T04:50:06;102170.78;;;11.84;94.34
71485;BME280;59300;52.074;4.758;2022-09-01T04:53:08;102170.75;;;11.90;93.92
71485;BME280;59300;52.074;4.758;2022-09-01T04:56:19;102167.16;;;11.91;93.51
71485;BME280;59300;52.074;4.758;2022-09-01T04:59:32;102164.53;;;11.93;93.11
71485;BME280;59300;52.074;4.758;2022-09-01T05:02:35;102168.97;;;11.89;93.10
71485;BME280;59300;52.074;4.758;2022-09-01T05:05:42;102169.00;;;11.86;93.80
71485;BME280;59300;52.074;4.758;2022-09-01T05:08:44;102165.59;;;11.78;93.96
71485;BME280;59300;52.074;4.758;2022-09-01T05:11:56;102164.81;;;11.68;94.79
71485;BME280;59300;52.074;4.758;2022-09-01T05:15:04;102173.66;;;11.64;95.24
71485;BME280;59300;52.074;4.758;2022-09-01T05:18:07;102171.06;;;11.62;95.00
71485;BME280;59300;52.074;4.758;2022-09-01T05:21:09;102179.00;;;11.62;95.24
71485;BME280;59300;52.074;4.758;2022-09-01T05:24:18;102183.41;;;11.60;95.32
71485;BME280;59300;52.074;4.758;2022-09-01T05:27:21;102180.75;;;11.63;95.00
71485;BME280;59300;52.074;4.758;2022-09-01T05:30:24;102180.69;;;11.68;94.68
71485;BME280;59300;52.074;4.758;2022-09-01T05:33:26;102167.28;;;11.82;93.80
71485;BME280;59300;52.074;4.758;2022-09-01T05:36:28;102177.75;;;11.91;93.48
71485;BME280;59300;52.074;4.758;2022-09-01T05:39:30;102166.22;;;12.02;92.78
71485;BME280;59300;52.074;4.758;2022-09-01T05:42:33;102165.22;;;12.09;92.43
71485;BME280;59300;52.074;4.758;2022-09-01T05:45:36;102173.13;;;12.10;92.55
71485;BME280;59300;52.074;4.758;2022-09-01T05:48:59;102174.00;;;12.14;91.89
71485;BME280;59300;52.074;4.758;2022-09-01T05:52:03;102176.50;;;12.23;91.54
71485;BME280;59300;52.074;4.758;2022-09-01T05:55:06;102178.19;;;12.29;91.13
71485;BME280;59300;52.074;4.758;2022-09-01T05:58:10;102176.38;;;12.34;90.90
71485;BME280;59300;52.074;4.758;2022-09-01T06:01:17;102177.22;;;12.35;91.34
71485;BME280;59300;52.074;4.758;2022-09-01T06:04:20;102180.75;;;12.37;90.75
71485;BME280;59300;52.074;4.758;2022-09-01T06:07:23;102180.75;;;12.37;90.87
71485;BME280;59300;52.074;4.758;2022-09-01T06:10:29;102176.25;;;12.42;90.82
71485;BME280;59300;52.074;4.758;2022-09-01T06:13:31;102178.84;;;12.45;90.58
71485;BME280;59300;52.074;4.758;2022-09-01T06:16:35;102176.97;;;12.53;90.43
71485;BME280;59300;52.074;4.758;2022-09-01T06:19:37;102183.06;;;12.60;90.29
71485;BME280;59300;52.074;4.758;2022-09-01T06:22:40;102178.53;;;12.67;89.97
71485;BME280;59300;52.074;4.758;2022-09-01T06:25:45;102182.81;;;12.77;89.34
71485;BME280;59300;52.074;4.758;2022-09-01T06:28:50;102180.97;;;12.79;89.31
71485;BME280;59300;52.074;4.758;2022-09-01T06:31:52;102181.75;;;12.87;88.11
71485;BME280;59300;52.074;4.758;2022-09-01T06:34:54;102173.75;;;12.90;87.97
71485;BME280;59300;52.074;4.758;2022-09-01T06:37:56;102174.34;;;13.08;87.06
71485;BME280;59300;52.074;4.758;2022-09-01T06:41:08;102177.53;;;13.29;86.02
71485;BME280;59300;52.074;4.758;2022-09-01T06:44:11;102186.78;;;13.56;84.28
71485;BME280;59300;52.074;4.758;2022-09-01T06:47:20;102186.91;;;13.94;82.30
71485;BME280;59300;52.074;4.758;2022-09-01T06:50:22;102183.53;;;14.28;81.64
71485;BME280;59300;52.074;4.758;2022-09-01T06:53:46;102191.44;;;14.70;78.64
71485;BME280;59300;52.074;4.758;2022-09-01T06:56:50;102191.06;;;15.22;75.79
71485;BME280;59300;52.074;4.758;2022-09-01T06:59:55;102193.16;;;15.44;74.21
71485;BME280;59300;52.074;4.758;2022-09-01T07:02:58;102191.63;;;15.35;74.57
71485;BME280;59300;52.074;4.758;2022-09-01T07:06:20;102200.38;;;15.72;73.33
71485;BME280;59300;52.074;4.758;2022-09-01T07:09:51;102197.34;;;17.55;66.03
71485;BME280;59300;52.074;4.758;2022-09-01T07:13:21;102194.88;;;20.14;55.18
71485;BME280;59300;52.074;4.758;2022-09-01T07:16:25;102186.63;;;20.55;53.54
71485;BME280;59300;52.074;4.758;2022-09-01T07:19:36;102196.03;;;20.64;51.40
71485;BME280;59300;52.074;4.758;2022-09-01T07:22:56;102200.00;;;21.46;50.07
71485;BME280;59300;52.074;4.758;2022-09-01T07:26:08;102197.22;;;21.12;49.48
71485;BME280;59300;52.074;4.758;2022-09-01T07:29:16;102195.34;;;21.14;48.57
71485;BME280;59300;52.074;4.758;2022-09-01T07:32:19;102194.28;;;20.07;51.89
71485;BME280;59300;52.074;4.758;2022-09-01T07:35:41;102195.22;;;22.02;47.41
71485;BME280;59300;52.074;4.758;2022-09-01T07:39:04;102190.09;;;22.78;45.63
71485;BME280;59300;52.074;4.758;2022-09-01T07:42:52;102197.38;;;22.61;44.72
71485;BME280;59300;52.074;4.758;2022-09-01T07:46:31;102187.06;;;21.19;48.05
71485;BME280;59300;52.074;4.758;2022-09-01T07:49:45;102191.13;;;21.79;47.72
71485;BME280;59300;52.074;4.758;2022-09-01T07:53:07;102195.94;;;23.00;44.06
71485;BME280;59300;52.074;4.758;2022-09-01T07:56:10;102204.09;;;23.60;44.21
71485;BME280;59300;52.074;4.758;2022-09-01T07:59:18;102195.75;;;24.77;40.87
71485;BME280;59300;52.074;4.758;2022-09-01T08:02:26;102198.91;;;24.84;40.52
71485;BME280;59300;52.074;4.758;2022-09-01T08:05:29;102202.75;;;24.94;40.29
71485;BME280;59300;52.074;4.758;2022-09-01T08:08:31;102207.59;;;25.42;38.99
71485;BME280;59300;52.074;4.758;2022-09-01T08:11:37;102202.22;;;26.56;36.78
71485;BME280;59300;52.074;4.758;2022-09-01T08:15:03;102202.69;;;25.86;37.46
71485;BME280;59300;52.074;4.758;2022-09-01T08:18:26;102199.81;;;25.51;38.45
71485;BME280;59300;52.074;4.758;2022-09-01T08:21:29;102205.22;;;25.76;38.34
71485;BME280;59300;52.074;4.758;2022-09-01T08:24:36;102204.00;;;26.44;36.19
71485;BME280;59300;52.074;4.758;2022-09-01T08:27:38;102207.38;;;26.34;36.27
71485;BME280;59300;52.074;4.758;2022-09-01T08:30:42;102204.09;;;25.27;39.04
71485;BME280;59300;52.074;4.758;2022-09-01T08:33:54;102198.19;;;26.86;36.96
71485;BME280;59300;52.074;4.758;2022-09-01T08:36:56;102198.94;;;26.88;36.02
71485;BME280;59300;52.074;4.758;2022-09-01T08:39:58;102195.28;;;27.00;36.23
71485;BME280;59300;52.074;4.758;2022-09-01T08:43:17;102203.50;;;25.75;38.16
71485;BME280;59300;52.074;4.758;2022-09-01T08:46:32;102194.28;;;26.28;36.42
71485;BME280;59300;52.074;4.758;2022-09-01T08:49:35;102198.75;;;25.00;39.57
71485;BME280;59300;52.074;4.758;2022-09-01T08:53:02;102195.22;;;26.03;37.29
71485;BME280;59300;52.074;4.758;2022-09-01T08:56:14;102203.31;;;25.25;38.29
71485;BME280;59300;52.074;4.758;2022-09-01T08:59:19;102198.72;;;25.66;37.70
71485;BME280;59300;52.074;4.758;2022-09-01T09:06:12;102192.28;;;26.06;37.46
71485;BME280;59300;52.074;4.758;2022-09-01T09:09:16;102192.41;;;26.17;38.29
71485;BME280;59300;52.074;4.758;2022-09-01T09:12:28;102185.91;;;26.20;36.10
71485;BME280;59300;52.074;4.758;2022-09-01T09:18:52;102185.06;;;27.04;35.02
71485;BME280;59300;52.074;4.758;2022-09-01T09:21:59;102185.66;;;27.43;33.78
71485;BME280;59300;52.074;4.758;2022-09-01T09:25:16;102183.63;;;27.58;34.88
71485;BME280;59300;52.074;4.758;2022-09-01T09:28:20;102174.88;;;27.77;32.85
71485;BME280;59300;52.074;4.758;2022-09-01T09:31:31;102170.78;;;27.49;33.44
71485;BME280;59300;52.074;4.758;2022-09-01T09:34:39;102167.94;;;27.39;34.66
71485;BME280;59300;52.074;4.758;2022-09-01T09:37:42;102163.22;;;27.41;33.45
71485;BME280;59300;52.074;4.758;2022-09-01T09:41:02;102163.00;;;26.61;35.05
71485;BME280;59300;52.074;4.758;2022-09-01T09:44:30;102157.91;;;26.81;35.30
71485;BME280;59300;52.074;4.758;2022-09-01T09:50:45;102153.50;;;26.56;34.63
71485;BME280;59300;52.074;4.758;2022-09-01T09:53:47;102155.50;;;26.41;35.41
71485;BME280;59300;52.074;4.758;2022-09-01T10:00:24;102148.88;;;26.07;37.23
71485;BME280;59300;52.074;4.758;2022-09-01T10:03:43;102137.66;;;26.62;35.71
71485;BME280;59300;52.074;4.758;2022-09-01T10:06:45;102145.13;;;26.83;35.12
71485;BME280;59300;52.074;4.758;2022-09-01T10:09:48;102134.59;;;26.18;36.06
71485;BME280;59300;52.074;4.758;2022-09-01T10:12:54;102131.28;;;26.75;35.43
71485;BME280;59300;52.074;4.758;2022-09-01T10:16:00;102129.91;;;27.05;34.46
71485;BME280;59300;52.074;4.758;2022-09-01T10:19:10;102140.81;;;27.27;33.36
71485;BME280;59300;52.074;4.758;2022-09-01T10:22:13;102129.91;;;27.16;32.96
71485;BME280;59300;52.074;4.758;2022-09-01T10:25:19;102135.03;;;27.78;32.10
71485;BME280;59300;52.074;4.758;2022-09-01T10:28:22;102136.78;;;27.56;33.08
71485;BME280;59300;52.074;4.758;2022-09-01T10:31:25;102128.47;;;27.35;33.10
71485;BME280;59300;52.074;4.758;2022-09-01T10:34:35;102118.84;;;27.19;33.73
71485;BME280;59300;52.074;4.758;2022-09-01T10:37:39;102124.28;;;27.19;33.22
71485;BME280;59300;52.074;4.758;2022-09-01T10:40:45;102122.56;;;27.29;33.94
71485;BME280;59300;52.074;4.758;2022-09-01T10:43:50;102124.25;;;26.36;33.82
71485;BME280;59300;52.074;4.758;2022-09-01T10:46:52;102123.28;;;27.09;33.00
71485;BME280;59300;52.074;4.758;2022-09-01T10:56:41;102114.97;;;28.24;30.52
71485;BME280;59300;52.074;4.758;2022-09-01T10:59:51;102120.88;;;27.51;31.83
71485;BME280;59300;52.074;4.758;2022-09-01T11:09:45;102112.47;;;27.43;30.74
71485;BME280;59300;52.074;4.758;2022-09-01T11:13:17;102113.66;;;27.16;32.25
71485;BME280;59300;52.074;4.758;2022-09-01T11:16:38;102118.53;;;27.58;31.47
71485;BME280;59300;52.074;4.758;2022-09-01T11:19:59;102110.00;;;27.40;31.35
71485;BME280;59300;52.074;4.758;2022-09-01T11:23:10;102111.00;;;27.73;30.95
71485;BME280;59300;52.074;4.758;2022-09-01T11:29:56;102093.78;;;28.18;30.21
71485;BME280;59300;52.074;4.758;2022-09-01T11:33:10;102096.06;;;28.34;27.77
71485;BME280;59300;52.074;4.758;2022-09-01T11:39:40;102098.88;;;27.09;29.37
71485;BME280;59300;52.074;4.758;2022-09-01T11:42:43;102103.19;;;27.00;30.77
71485;BME280;59300;52.074;4.758;2022-09-01T11:46:15;102100.19;;;26.56;31.14
71485;BME280;59300;52.074;4.758;2022-09-01T11:49:28;102099.19;;;27.63;29.35
71485;BME280;59300;52.074;4.758;2022-09-01T11:52:35;102097.16;;;26.96;30.89
71485;BME280;59300;52.074;4.758;2022-09-01T11:58:39;102092.78;;;27.52;29.10
71485;BME280;59300;52.074;4.758;2022-09-01T12:01:41;102084.66;;;27.64;29.04
71485;BME280;59300;52.074;4.758;2022-09-01T12:04:43;102077.22;;;27.32;28.26
71485;BME280;59300;52.074;4.758;2022-09-01T12:07:46;102077.94;;;26.88;29.42
71485;BME280;59300;52.074;4.758;2022-09-01T12:10:48;102079.31;;;26.70;31.11
71485;BME280;59300;52.074;4.758;2022-09-01T12:14:09;102071.94;;;27.53;29.13
71485;BME280;59300;52.074;4.758;2022-09-01T12:17:19;102070.06;;;26.96;29.22
71485;BME280;59300;52.074;4.758;2022-09-01T12:20:40;102063.28;;;27.02;29.00
71485;BME280;59300;52.074;4.758;2022-09-01T12:23:42;102062.31;;;27.37;28.63
71485;BME280;59300;52.074;4.758;2022-09-01T12:26:52;102056.75;;;27.73;27.23
71485;BME280;59300;52.074;4.758;2022-09-01T12:29:54;102065.91;;;27.49;28.76
71485;BME280;59300;52.074;4.758;2022-09-01T12:32:57;102059.47;;;27.73;27.06
71485;BME280;59300;52.074;4.758;2022-09-01T12:36:29;102056.53;;;27.31;27.65
71485;BME280;59300;52.074;4.758;2022-09-01T12:39:34;102058.06;;;26.41;29.17
71485;BME280;59300;52.074;4.758;2022-09-01T12:42:36;102059.72;;;26.90;28.61
71485;BME280;59300;52.074;4.758;2022-09-01T12:45:46;102043.88;;;26.73;27.99
71485;BME280;59300;52.074;4.758;2022-09-01T12:48:48;102054.72;;;26.73;29.22
71485;BME280;59300;52.074;4.758;2022-09-01T12:52:10;102049.22;;;26.39;28.17
71485;BME280;59300;52.074;4.758;2022-09-01T12:55:26;102051.78;;;26.40;28.61
71485;BME280;59300;52.074;4.758;2022-09-01T12:58:50;102050.16;;;26.73;28.06
71485;BME280;59300;52.074;4.758;2022-09-01T13:02:27;102045.22;;;27.14;27.13
71485;BME280;59300;52.074;4.758;2022-09-01T13:05:42;102029.78;;;27.14;28.48
71485;BME280;59300;52.074;4.758;2022-09-01T13:08:45;102040.25;;;27.08;28.48
71485;BME280;59300;52.074;4.758;2022-09-01T13:11:47;102040.16;;;27.21;27.38
71485;BME280;59300;52.074;4.758;2022-09-01T13:15:10;102044.19;;;27.04;28.50
71485;BME280;59300;52.074;4.758;2022-09-01T13:18:17;102026.84;;;27.06;28.54
71485;BME280;59300;52.074;4.758;2022-09-01T13:21:20;102032.75;;;27.00;27.20
71485;BME280;59300;52.074;4.758;2022-09-01T13:24:22;102026.47;;;27.45;26.05
71485;BME280;59300;52.074;4.758;2022-09-01T13:27:30;102023.63;;;27.01;27.26
71485;BME280;59300;52.074;4.758;2022-09-01T13:30:33;102019.53;;;27.41;25.94
71485;BME280;59300;52.074;4.758;2022-09-01T13:33:35;102014.88;;;27.32;26.35
71485;BME280;59300;52.074;4.758;2022-09-01T13:36:57;102015.53;;;27.90;24.26
71485;BME280;59300;52.074;4.758;2022-09-01T13:39:59;102008.28;;;27.80;24.21
71485;BME280;59300;52.074;4.758;2022-09-01T13:43:02;102006.88;;;27.53;24.73
71485;BME280;59300;52.074;4.758;2022-09-01T13:46:04;102013.50;;;27.60;25.42
71485;BME280;59300;52.074;4.758;2022-09-01T13:49:07;102010.16;;;27.68;25.57
71485;BME280;59300;52.074;4.758;2022-09-01T13:52:29;102008.16;;;27.81;24.79
71485;BME280;59300;52.074;4.758;2022-09-01T13:55:34;101997.13;;;27.62;24.83
71485;BME280;59300;52.074;4.758;2022-09-01T13:58:38;102001.59;;;27.06;26.19
71485;BME280;59300;52.074;4.758;2022-09-01T14:01:40;101999.00;;;27.27;26.44
71485;BME280;59300;52.074;4.758;2022-09-01T14:04:42;101996.16;;;27.17;26.70
71485;BME280;59300;52.074;4.758;2022-09-01T14:07:44;102000.22;;;27.23;28.16
71485;BME280;59300;52.074;4.758;2022-09-01T14:10:49;101990.47;;;27.54;25.93
71485;BME280;59300;52.074;4.758;2022-09-01T14:13:52;101989.13;;;27.49;26.59
71485;BME280;59300;52.074;4.758;2022-09-01T14:16:54;101988.41;;;27.01;26.71
71485;BME280;59300;52.074;4.758;2022-09-01T14:19:56;101994.16;;;27.42;26.64
71485;BME280;59300;52.074;4.758;2022-09-01T14:22:58;101985.34;;;26.94;27.35
71485;BME280;59300;52.074;4.758;2022-09-01T14:26:00;101994.63;;;26.67;27.32
71485;BME280;59300;52.074;4.758;2022-09-01T14:29:02;101984.53;;;26.70;27.27
71485;BME280;59300;52.074;4.758;2022-09-01T14:32:04;101977.91;;;26.62;27.27
71485;BME280;59300;52.074;4.758;2022-09-01T14:35:06;101972.13;;;26.67;28.39
71485;BME280;59300;52.074;4.758;2022-09-01T14:38:09;101976.59;;;27.02;26.94
71485;BME280;59300;52.074;4.758;2022-09-01T14:41:12;101966.72;;;26.67;27.22
71485;BME280;59300;52.074;4.758;2022-09-01T14:44:15;101968.25;;;26.35;28.26
71485;BME280;59300;52.074;4.758;2022-09-01T14:47:17;101964.09;;;26.54;27.70
71485;BME280;59300;52.074;4.758;2022-09-01T14:50:22;101949.59;;;27.23;26.45
71485;BME280;59300;52.074;4.758;2022-09-01T14:53:24;101946.19;;;26.87;26.88
71485;BME280;59300;52.074;4.758;2022-09-01T14:56:26;101948.75;;;26.66;27.51
71485;BME280;59300;52.074;4.758;2022-09-01T14:59:28;101951.38;;;26.90;27.92
71485;BME280;59300;52.074;4.758;2022-09-01T15:02:30;101941.00;;;26.95;28.72
71485;BME280;59300;52.074;4.758;2022-09-01T15:05:34;101944.72;;;26.83;28.76
71485;BME280;59300;52.074;4.758;2022-09-01T15:08:41;101929.41;;;26.48;28.25
71485;BME280;59300;52.074;4.758;2022-09-01T15:11:43;101926.09;;;27.01;27.34
71485;BME280;59300;52.074;4.758;2022-09-01T15:14:46;101928.69;;;26.91;26.97
71485;BME280;59300;52.074;4.758;2022-09-01T15:17:48;101930.63;;;26.78;27.59
71485;BME280;59300;52.074;4.758;2022-09-01T15:20:50;101935.66;;;26.48;28.46
71485;BME280;59300;52.074;4.758;2022-09-01T15:23:53;101932.38;;;26.79;27.25
71485;BME280;59300;52.074;4.758;2022-09-01T15:26:55;101928.69;;;26.80;27.62
71485;BME280;59300;52.074;4.758;2022-09-01T15:29:57;101914.44;;;27.01;26.82
71485;BME280;59300;52.074;4.758;2022-09-01T15:33:00;101927.34;;;26.86;27.62
71485;BME280;59300;52.074;4.758;2022-09-01T15:36:02;101923.97;;;26.36;29.08
71485;BME280;59300;52.074;4.758;2022-09-01T15:39:05;101919.53;;;26.24;28.03
71485;BME280;59300;52.074;4.758;2022-09-01T15:42:07;101915.22;;;25.97;29.85
71485;BME280;59300;52.074;4.758;2022-09-01T15:45:16;101911.63;;;25.85;30.68
71485;BME280;59300;52.074;4.758;2022-09-01T15:48:18;101908.31;;;25.93;28.98
71485;BME280;59300;52.074;4.758;2022-09-01T15:54:22;101905.66;;;25.69;29.36
71485;BME280;59300;52.074;4.758;2022-09-01T15:57:31;101907.53;;;25.80;28.98
71485;BME280;59300;52.074;4.758;2022-09-01T16:00:33;101910.81;;;25.72;28.86
71485;BME280;59300;52.074;4.758;2022-09-01T16:03:35;101909.19;;;25.58;29.59
71485;BME280;59300;52.074;4.758;2022-09-01T16:06:38;101903.41;;;25.38;29.44
71485;BME280;59300;52.074;4.758;2022-09-01T16:09:40;101904.91;;;25.42;29.86
71485;BME280;59300;52.074;4.758;2022-09-01T16:12:43;101887.72;;;25.43;31.03
71485;BME280;59300;52.074;4.758;2022-09-01T16:15:52;101889.94;;;25.74;30.54
71485;BME280;59300;52.074;4.758;2022-09-01T16:19:13;101887.97;;;26.00;29.49
71485;BME280;59300;52.074;4.758;2022-09-01T16:22:25;101890.53;;;25.66;30.69
71485;BME280;59300;52.074;4.758;2022-09-01T16:25:30;101888.25;;;25.49;31.71
71485;BME280;59300;52.074;4.758;2022-09-01T16:28:36;101883.28;;;25.42;31.97
71485;BME280;59300;52.074;4.758;2022-09-01T16:31:39;101881.56;;;25.41;30.54
71485;BME280;59300;52.074;4.758;2022-09-01T16:34:42;101882.34;;;25.30;32.22
71485;BME280;59300;52.074;4.758;2022-09-01T16:38:09;101877.88;;;25.05;32.60
71485;BME280;59300;52.074;4.758;2022-09-01T16:41:54;101877.38;;;25.00;33.23
71485;BME280;59300;52.074;4.758;2022-09-01T16:52:10;101873.09;;;24.84;34.64
71485;BME280;59300;52.074;4.758;2022-09-01T16:58:27;101870.72;;;24.67;34.37
71485;BME280;59300;52.074;4.758;2022-09-01T17:05:14;101865.56;;;24.38;34.94
71485;BME280;59300;52.074;4.758;2022-09-01T17:08:25;101870.53;;;24.05;37.16